Ash Ridge, Ohio
Current Conditions -  °F | °C
As of 5:55 AM on Wednesday 22 Oct 2014 (Local Time) from KFGX Reporting Station
Overcast Overcast  
Wind Chill: 39°   Ceiling: 1600
Heat Index: 44°   Visibility: 10mi
Dew Point: 39°   Wind: 10mph
Humidity: 82%   Direction: 10°N
Pressure: 30.21"   Gusts: NA
Location:  38.8698°N, 83.9081°W
Report Text: KFGX 220955Z AUTO 01009KT 10SM OVC016 07/04 A3021 RMK AO2 T00680040
Loading
Personal Weather Stations






























Interactive Weather Map New forecast layout! Learn more

10-Day Weather Forecast

Advertisements
Track Severe Weather on mobile